Time;durP1;ratioP1;P1;durP2;ratioP2;P2;SDS_P1;SDS_P2;PMS_P1;PMS_P2;Temp;Humidity;BMP_temperature;BMP_pressure;BME280_temperature;BME280_humidity;BME280_pressure;Samples;Min_cycle;Max_cycle;Signal;HPM_P1;HPM_P2
2022/12/28 00:01:17;;;;;;;13.68;6.15;;;5.70;99.90;;;;;;7368385;19;20025;-50
2022/12/28 00:03:44;;;;;;;15.10;7.38;;;5.70;99.90;;;;;;7377257;19;20021;-49
2022/12/28 00:06:11;;;;;;;14.52;6.70;;;5.70;99.90;;;;;;7367649;19;20018;-47
2022/12/28 00:08:39;;;;;;;15.95;7.40;;;5.70;99.90;;;;;;7371240;19;20010;-50
2022/12/28 00:11:11;;;;;;;14.18;7.38;;;5.70;99.90;;;;;;7370977;19;20018;-48
2022/12/28 00:13:40;;;;;;;14.60;7.13;;;5.70;99.90;;;;;;7372397;19;20462;-47
2022/12/28 00:16:37;;;;;;;14.57;7.32;;;5.70;99.90;;;;;;7374359;19;20105;-50
2022/12/28 00:19:14;;;;;;;13.15;6.60;;;5.70;99.90;;;;;;7372905;19;20015;-50
2022/12/28 00:21:43;;;;;;;13.95;7.32;;;5.70;99.90;;;;;;7370336;19;20354;-49
2022/12/28 00:24:27;;;;;;;13.65;7.00;;;5.60;99.90;;;;;;7372337;19;20020;-47
2022/12/28 00:26:55;;;;;;;12.52;6.95;;;5.70;99.90;;;;;;7369923;19;20509;-50
2022/12/28 00:29:22;;;;;;;14.23;6.60;;;5.70;99.90;;;;;;7366150;19;20494;-52
2022/12/28 00:31:51;;;;;;;17.33;6.70;;;5.60;99.90;;;;;;7372329;19;20023;-51
2022/12/28 00:34:21;;;;;;;14.48;7.45;;;5.70;99.90;;;;;;7375708;19;20054;-55
2022/12/28 00:36:50;;;;;;;13.57;6.38;;;5.70;99.90;;;;;;7385805;19;20709;-56
2022/12/28 00:39:18;;;;;;;13.50;6.80;;;5.60;99.90;;;;;;7384361;19;21211;-55
2022/12/28 00:41:44;;;;;;;14.38;7.15;;;5.60;99.90;;;;;;7380874;19;20630;-55
2022/12/28 00:44:11;;;;;;;15.68;7.80;;;5.70;99.90;;;;;;7386121;19;20410;-48
2022/12/28 00:46:37;;;;;;;12.60;6.78;;;5.70;99.90;;;;;;7385535;19;20022;-50
2022/12/28 00:49:03;;;;;;;15.85;7.80;;;5.60;99.90;;;;;;7385911;19;20018;-51
2022/12/28 00:51:30;;;;;;;18.85;8.10;;;5.60;99.90;;;;;;7386245;19;20023;-49
2022/12/28 00:53:56;;;;;;;10.57;7.05;;;5.60;99.90;;;;;;7383455;19;20400;-49
2022/12/28 00:56:23;;;;;;;15.52;8.40;;;5.60;99.90;;;;;;7387262;19;20816;-49
2022/12/28 00:58:56;;;;;;;13.88;7.50;;;5.70;99.90;;;;;;7389856;19;20029;-46
2022/12/28 01:01:23;;;;;;;11.90;7.82;;;5.70;99.90;;;;;;7384864;19;20023;-47
2022/12/28 01:03:50;;;;;;;14.73;8.48;;;5.70;99.90;;;;;;7387392;19;20460;-51
2022/12/28 01:06:19;;;;;;;14.20;7.57;;;5.70;99.90;;;;;;7386669;19;20022;-51
2022/12/28 01:08:45;;;;;;;13.98;7.85;;;5.70;99.90;;;;;;7384933;19;20612;-49
2022/12/28 01:11:17;;;;;;;15.05;7.95;;;5.70;99.90;;;;;;7387514;19;20014;-47
2022/12/28 01:13:43;;;;;;;11.88;7.50;;;5.70;99.90;;;;;;7382663;19;20030;-50
2022/12/28 01:16:16;;;;;;;13.85;7.57;;;5.80;99.90;;;;;;7384358;19;20014;-48
2022/12/28 01:18:43;;;;;;;15.98;7.55;;;5.80;99.90;;;;;;7386185;19;20022;-48
2022/12/28 01:21:17;;;;;;;13.68;7.60;;;5.80;99.90;;;;;;7388382;19;20018;-50
2022/12/28 01:23:45;;;;;;;13.18;7.18;;;5.80;99.90;;;;;;7383630;19;20451;-51
2022/12/28 01:26:12;;;;;;;13.55;8.15;;;5.80;99.90;;;;;;7388635;19;20019;-50
2022/12/28 01:28:38;;;;;;;17.00;8.63;;;5.80;99.90;;;;;;7382944;19;20015;-50
2022/12/28 01:31:11;;;;;;;16.17;8.60;;;5.90;99.90;;;;;;7387802;19;20045;-51
2022/12/28 01:33:38;;;;;;;14.43;7.82;;;5.90;99.90;;;;;;7382414;19;20050;-51
2022/12/28 01:36:17;;;;;;;18.75;7.47;;;5.90;99.90;;;;;;7381308;19;20643;-52
2022/12/28 01:38:44;;;;;;;13.07;7.75;;;5.90;99.90;;;;;;7378790;19;20015;-49
2022/12/28 01:41:16;;;;;;;13.77;7.35;;;6.00;99.90;;;;;;7383138;19;20022;-53
2022/12/28 01:43:45;;;;;;;13.32;8.13;;;6.00;99.90;;;;;;7383264;19;20030;-52
2022/12/28 01:46:49;;;;;;;11.88;7.28;;;6.00;99.90;;;;;;7374008;19;20545;-56
2022/12/28 01:49:30;;;;;;;10.75;7.53;;;6.00;99.90;;;;;;7372034;19;20042;-56
2022/12/28 01:52:14;;;;;;;14.38;7.93;;;6.00;99.90;;;;;;7377499;19;20541;-56
2022/12/28 01:55:07;;;;;;;13.00;7.97;;;6.10;99.90;;;;;;7376089;19;20355;-51
2022/12/28 01:57:40;;;;;;;;;;;6.10;99.90;;;;;;7374988;19;20014;-56
2022/12/28 02:00:11;;;;;;;12.43;7.82;;;6.10;99.90;;;;;;7377725;19;19926;-51
2022/12/28 02:02:50;;;;;;;14.65;7.63;;;6.10;99.90;;;;;;7374157;19;20025;-52
2022/12/28 02:05:21;;;;;;;13.43;7.45;;;6.10;99.90;;;;;;7375297;19;20015;-51
2022/12/28 02:08:23;;;;;;;12.13;7.30;;;6.10;99.90;;;;;;7376172;19;21140;-49
2022/12/28 02:10:51;;;;;;;15.93;8.13;;;6.20;99.90;;;;;;7373320;19;20022;-49
2022/12/28 02:13:20;;;;;;;14.70;7.90;;;6.20;99.90;;;;;;7373924;19;20034;-56
2022/12/28 02:15:47;;;;;;;13.15;8.15;;;6.20;99.90;;;;;;7374338;19;20022;-56
2022/12/28 02:18:16;;;;;;;14.38;8.25;;;6.20;99.90;;;;;;7375638;19;20025;-56
2022/12/28 02:21:18;;;;;;;15.73;8.68;;;6.20;99.90;;;;;;7375553;19;20376;-50
2022/12/28 02:24:00;;;;;;;15.63;8.57;;;6.20;99.90;;;;;;7375470;19;20094;-49
2022/12/28 02:26:43;;;;;;;16.20;9.32;;;6.10;99.90;;;;;;7372515;19;20015;-46
2022/12/28 02:29:44;;;;;;;13.30;9.30;;;6.10;99.90;;;;;;7376066;19;20485;-55
2022/12/28 02:32:19;;;;;;;12.02;9.30;;;6.10;99.90;;;;;;7376022;19;20018;-56
2022/12/28 02:34:56;;;;;;;13.55;10.10;;;6.10;99.90;;;;;;7374103;19;20059;-55
2022/12/28 02:37:46;;;;;;;19.75;10.95;;;6.10;99.90;;;;;;7375784;19;20695;-55
2022/12/28 02:40:27;;;;;;;18.70;11.60;;;6.20;99.90;;;;;;7376516;19;20488;-55
2022/12/28 02:42:54;;;;;;;21.00;11.00;;;6.10;99.90;;;;;;7373503;19;20022;-55
2022/12/28 02:51:40;;;;;;;17.35;11.38;;;6.10;99.90;;;;;;7372858;19;20482;-50
2022/12/28 02:57:48;;;;;;;19.02;11.98;;;6.20;99.90;;;;;;7367029;19;20018;-56
2022/12/28 03:00:20;;;;;;;18.77;12.32;;;6.20;99.90;;;;;;7371270;19;20026;-57
2022/12/28 03:02:58;;;;;;;19.60;12.63;;;6.20;99.90;;;;;;7368427;19;20035;-56
2022/12/28 03:09:12;;;;;;;16.08;12.20;;;6.20;99.90;;;;;;7369488;19;20018;-50
2022/12/28 03:11:41;;;;;;;16.98;12.45;;;6.30;99.90;;;;;;7372479;19;20037;-50
2022/12/28 03:14:17;;;;;;;16.80;12.60;;;6.30;99.90;;;;;;7369609;19;20480;-57
2022/12/28 03:31:07;;;;;;;13.20;11.50;;;6.50;99.90;;;;;;7371894;19;20354;-51
2022/12/28 03:33:50;;;;;;;19.73;11.95;;;6.60;99.90;;;;;;7372985;19;20026;-55
2022/12/28 03:36:29;;;;;;;14.32;12.15;;;6.60;99.90;;;;;;7369687;19;20021;-50
2022/12/28 03:39:08;;;;;;;14.85;11.93;;;6.60;99.90;;;;;;7372138;19;20014;-52
2022/12/28 03:41:41;;;;;;;18.85;12.48;;;6.60;99.90;;;;;;7369892;19;20886;-50
2022/12/28 03:44:32;;;;;;;17.17;12.07;;;6.70;99.90;;;;;;7370976;19;20018;-55
2022/12/28 03:47:07;;;;;;;20.50;12.45;;;6.60;99.90;;;;;;7369055;19;20027;-55
2022/12/28 03:49:34;;;;;;;21.33;12.40;;;6.60;99.90;;;;;;7370859;19;20536;-56
2022/12/28 03:52:01;;;;;;;16.48;11.35;;;6.70;99.90;;;;;;7367215;19;20071;-56
2022/12/28 03:54:28;;;;;;;15.63;11.00;;;6.70;99.90;;;;;;7370395;19;20026;-50
2022/12/28 03:56:55;;;;;;;17.45;12.05;;;6.70;99.90;;;;;;7372533;19;20026;-51
2022/12/28 03:59:27;;;;;;;16.02;11.57;;;6.70;99.90;;;;;;7373010;19;20085;-49
2022/12/28 04:01:55;;;;;;;18.25;11.80;;;6.70;99.90;;;;;;7373453;19;20367;-56
2022/12/28 04:04:28;;;;;;;14.55;11.07;;;6.70;99.90;;;;;;7367627;19;20033;-48
2022/12/28 04:06:54;;;;;;;14.75;11.52;;;6.80;99.90;;;;;;7372472;19;20019;-50
2022/12/28 04:09:21;;;;;;;13.05;10.40;;;6.80;99.90;;;;;;7367433;19;20046;-51
2022/12/28 04:11:47;;;;;;;16.05;11.05;;;6.80;99.90;;;;;;7369003;19;20631;-52
2022/12/28 04:14:21;;;;;;;13.23;10.15;;;6.90;99.90;;;;;;7372326;19;20534;-51
2022/12/28 04:16:48;;;;;;;11.77;9.70;;;6.80;99.90;;;;;;7374483;19;20449;-50
2022/12/28 04:19:16;;;;;;;13.52;10.40;;;6.80;99.90;;;;;;7367184;19;20022;-57
2022/12/28 04:21:45;;;;;;;11.98;10.70;;;6.90;99.90;;;;;;7370958;19;20027;-57
2022/12/28 04:24:15;;;;;;;11.43;9.95;;;6.80;99.90;;;;;;7369771;19;20026;-56
2022/12/28 04:26:41;;;;;;;13.20;10.63;;;6.90;99.90;;;;;;7374776;19;20118;-57
2022/12/28 04:29:10;;;;;;;12.65;10.77;;;6.90;99.90;;;;;;7373626;19;20374;-56
2022/12/28 04:31:40;;;;;;;13.43;10.85;;;6.90;99.90;;;;;;7369016;19;20021;-57
2022/12/28 04:34:10;;;;;;;15.70;10.48;;;6.90;99.90;;;;;;7373037;19;20485;-57
2022/12/28 04:36:41;;;;;;;10.98;9.82;;;7.00;99.90;;;;;;7370884;19;20015;-57
2022/12/28 04:39:15;;;;;;;10.73;9.57;;;7.00;99.90;;;;;;7372041;19;20462;-56
2022/12/28 04:41:48;;;;;;;10.10;8.95;;;6.90;99.90;;;;;;7368730;19;20015;-56
2022/12/28 04:44:14;;;;;;;10.85;8.80;;;6.90;99.90;;;;;;7370615;19;20029;-56
2022/12/28 04:46:41;;;;;;;12.50;9.60;;;7.00;99.90;;;;;;7369549;19;20018;-57
2022/12/28 04:49:07;;;;;;;11.90;10.43;;;7.00;99.90;;;;;;7373533;19;20018;-56
2022/12/28 04:51:34;;;;;;;12.13;9.95;;;7.10;99.90;;;;;;7365001;19;20018;-57
2022/12/28 04:54:00;;;;;;;12.60;10.27;;;7.10;99.90;;;;;;7372455;19;20116;-56
2022/12/28 04:56:27;;;;;;;12.23;9.88;;;7.00;99.90;;;;;;7374379;19;20015;-56
2022/12/28 04:58:55;;;;;;;12.82;9.77;;;7.00;99.90;;;;;;7373075;19;20106;-56
2022/12/28 05:01:22;;;;;;;13.95;10.90;;;7.10;99.90;;;;;;7369794;19;20018;-57
2022/12/28 05:03:51;;;;;;;12.52;10.25;;;7.10;99.90;;;;;;7369352;19;20613;-57
2022/12/28 05:06:20;;;;;;;12.50;9.80;;;7.10;99.90;;;;;;7372013;19;20014;-56
2022/12/28 05:08:47;;;;;;;11.65;10.02;;;7.20;99.90;;;;;;7371271;19;20019;-57
2022/12/28 05:11:23;;;;;;;13.00;10.95;;;7.20;99.90;;;;;;7368960;19;20477;-57
2022/12/28 05:13:51;;;;;;;12.95;9.38;;;7.10;99.90;;;;;;7370099;19;20024;-56
2022/12/28 05:16:20;;;;;;;11.68;10.48;;;7.30;99.90;;;;;;7370433;19;20086;-56
2022/12/28 05:18:47;;;;;;;14.00;10.15;;;7.20;99.90;;;;;;7369072;19;20015;-57
2022/12/28 05:21:16;;;;;;;11.48;9.90;;;7.30;99.90;;;;;;7371401;19;20422;-56
2022/12/28 05:23:43;;;;;;;11.00;9.90;;;7.20;99.90;;;;;;7378111;19;20427;-56
2022/12/28 05:26:14;;;;;;;11.55;9.50;;;7.40;99.90;;;;;;7377945;19;20086;-56
2022/12/28 05:28:41;;;;;;;12.90;10.68;;;7.30;99.90;;;;;;7374270;19;20535;-56
2022/12/28 05:31:21;;;;;;;15.32;10.95;;;7.40;99.90;;;;;;7374187;19;20029;-56
2022/12/28 05:33:48;;;;;;;11.85;10.38;;;7.40;99.90;;;;;;7370714;19;20354;-56
2022/12/28 05:36:21;;;;;;;12.50;10.57;;;7.40;99.90;;;;;;7372244;19;20493;-57
2022/12/28 05:38:49;;;;;;;13.27;11.75;;;7.50;99.90;;;;;;7365663;19;20017;-56
2022/12/28 05:41:21;;;;;;;13.57;12.05;;;7.50;99.90;;;;;;7369000;19;20048;-56
2022/12/28 05:43:48;;;;;;;13.50;11.80;;;7.50;99.90;;;;;;7370435;19;20039;-56
2022/12/28 05:46:25;;;;;;;14.98;13.38;;;7.50;99.90;;;;;;7369713;19;20041;-56
2022/12/28 05:48:53;;;;;;;14.57;12.73;;;7.50;99.90;;;;;;7368746;19;20018;-57
2022/12/28 05:51:22;;;;;;;15.88;13.30;;;7.60;99.90;;;;;;7370882;19;20568;-56
2022/12/28 05:53:48;;;;;;;15.13;12.63;;;7.50;99.90;;;;;;7368064;19;20018;-51
2022/12/28 05:56:20;;;;;;;15.23;12.38;;;7.50;99.90;;;;;;7374490;19;20022;-51
2022/12/28 05:58:52;;;;;;;15.35;13.38;;;7.60;99.90;;;;;;7370578;19;20022;-56
2022/12/28 06:01:22;;;;;;;15.20;13.60;;;7.70;99.90;;;;;;7369805;19;20358;-48
2022/12/28 06:03:57;;;;;;;15.63;14.05;;;7.60;99.90;;;;;;7370753;19;20051;-50
2022/12/28 06:06:24;;;;;;;15.68;13.88;;;7.70;99.90;;;;;;7371912;19;20514;-56
2022/12/28 06:08:50;;;;;;;19.08;14.23;;;7.70;99.90;;;;;;7369500;19;20018;-49
2022/12/28 06:11:20;;;;;;;17.75;15.85;;;7.70;99.90;;;;;;7367680;19;20045;-56
2022/12/28 06:13:46;;;;;;;16.52;14.70;;;7.80;99.90;;;;;;7370841;19;20022;-56
2022/12/28 06:16:29;;;;;;;16.45;14.82;;;7.70;99.90;;;;;;7369529;19;20067;-56
2022/12/28 06:19:10;;;;;;;17.33;15.30;;;7.80;99.90;;;;;;7372817;19;20030;-49
2022/12/28 06:21:38;;;;;;;16.60;14.90;;;7.80;99.90;;;;;;7365892;19;20612;-48
2022/12/28 06:24:06;;;;;;;16.77;14.77;;;7.80;99.90;;;;;;7370648;19;20389;-51
2022/12/28 06:26:35;;;;;;;20.23;15.63;;;7.80;99.90;;;;;;7368091;19;20067;-51
2022/12/28 06:29:04;;;;;;;17.15;15.35;;;7.80;99.90;;;;;;7371305;19;20018;-57
2022/12/28 06:31:38;;;;;;;16.75;14.82;;;7.90;99.90;;;;;;7369190;19;20118;-57
2022/12/28 06:34:07;;;;;;;18.50;15.77;;;7.90;99.90;;;;;;7369882;19;20098;-56
2022/12/28 06:36:42;;;;;;;18.75;16.55;;;8.10;99.90;;;;;;7368059;19;20042;-52
2022/12/28 06:39:10;;;;;;;18.85;16.15;;;8.00;99.90;;;;;;7365605;19;20035;-57
2022/12/28 06:41:47;;;;;;;16.90;15.10;;;8.00;99.90;;;;;;7372371;19;20030;-48
2022/12/28 06:44:21;;;;;;;17.42;15.18;;;8.10;99.90;;;;;;7366451;19;20617;-48
2022/12/28 06:46:49;;;;;;;18.70;16.38;;;8.00;99.90;;;;;;7369346;19;20026;-55
2022/12/28 06:49:16;;;;;;;15.48;13.88;;;8.10;99.90;;;;;;7361611;19;20023;-57
2022/12/28 06:51:43;;;;;;;17.67;15.88;;;8.20;99.90;;;;;;7367655;19;20033;-56
2022/12/28 06:54:10;;;;;;;18.88;15.77;;;8.20;99.90;;;;;;7365738;19;20446;-57
2022/12/28 06:56:38;;;;;;;18.30;16.40;;;8.20;99.90;;;;;;7369211;19;21160;-56
2022/12/28 06:59:05;;;;;;;23.67;16.55;;;8.20;99.90;;;;;;7366777;19;20054;-57
2022/12/28 07:01:33;;;;;;;20.05;16.00;;;8.20;99.90;;;;;;7367027;19;20081;-57
2022/12/28 07:04:03;;;;;;;18.67;16.70;;;8.30;99.90;;;;;;7369137;19;20018;-57
2022/12/28 07:06:34;;;;;;;18.33;16.42;;;8.20;99.90;;;;;;7369483;19;20022;-57
2022/12/28 07:09:03;;;;;;;17.58;15.77;;;8.30;99.90;;;;;;7364205;19;20022;-57
2022/12/28 07:11:30;;;;;;;19.55;17.55;;;8.30;99.90;;;;;;7368348;19;20026;-57
2022/12/28 07:13:56;;;;;;;18.00;16.08;;;8.30;99.90;;;;;;7362003;19;20530;-56
2022/12/28 07:16:30;;;;;;;21.08;16.80;;;8.40;99.90;;;;;;7366963;19;20026;-57
2022/12/28 07:18:59;;;;;;;19.60;17.60;;;8.30;99.90;;;;;;7366456;19;20022;-57
2022/12/28 07:21:31;;;;;;;19.88;17.63;;;8.40;99.90;;;;;;7366794;19;20011;-57
2022/12/28 07:23:59;;;;;;;20.20;18.10;;;8.40;99.90;;;;;;7368406;19;20490;-57
2022/12/28 07:26:28;;;;;;;18.95;17.00;;;8.50;99.90;;;;;;7371441;19;20102;-56
2022/12/28 07:28:56;;;;;;;21.23;18.13;;;8.50;99.90;;;;;;7366019;19;20117;-57
2022/12/28 07:31:26;;;;;;;20.85;18.42;;;8.50;99.90;;;;;;7366499;19;20486;-57
2022/12/28 07:33:55;;;;;;;19.65;17.42;;;8.50;99.90;;;;;;7369891;19;20022;-57
2022/12/28 07:36:23;;;;;;;21.30;19.17;;;8.60;99.90;;;;;;7365824;19;20023;-57
2022/12/28 07:38:50;;;;;;;20.48;18.38;;;8.50;99.90;;;;;;7365575;19;20774;-51
2022/12/28 07:41:20;;;;;;;20.48;17.95;;;8.60;99.90;;;;;;7366480;19;20393;-50
2022/12/28 07:43:47;;;;;;;19.25;17.23;;;8.70;99.90;;;;;;7361443;19;20027;-57
2022/12/28 07:46:16;;;;;;;20.50;18.40;;;8.70;99.90;;;;;;7366535;19;21482;-57
2022/12/28 07:48:43;;;;;;;18.90;16.77;;;8.60;99.90;;;;;;7365024;19;20074;-54
2022/12/28 07:51:31;;;;;;;18.85;17.02;;;8.70;99.90;;;;;;7365611;19;20018;-56
2022/12/28 07:53:58;;;;;;;21.13;17.25;;;8.70;99.90;;;;;;7361834;19;20019;-57
2022/12/28 07:56:26;;;;;;;20.77;18.00;;;8.70;99.90;;;;;;7363544;19;20388;-57
2022/12/28 07:58:55;;;;;;;20.20;18.15;;;8.70;99.90;;;;;;7367843;19;20033;-57
2022/12/28 08:01:24;;;;;;;20.05;18.05;;;8.70;99.90;;;;;;7361403;19;20014;-57
2022/12/28 08:03:56;;;;;;;21.00;18.23;;;8.70;99.90;;;;;;7362286;19;20014;-50
2022/12/28 08:06:25;;;;;;;19.23;16.33;;;8.60;99.90;;;;;;7358954;19;20043;-51
2022/12/28 08:08:59;;;;;;;19.55;17.48;;;8.70;99.90;;;;;;7365037;19;20112;-50
2022/12/28 08:11:28;;;;;;;20.33;18.30;;;8.70;99.90;;;;;;7364731;19;20516;-50
2022/12/28 08:13:56;;;;;;;20.63;18.40;;;8.70;99.90;;;;;;7366067;19;20485;-50
2022/12/28 08:16:25;;;;;;;20.35;18.25;;;8.70;99.90;;;;;;7368821;19;20108;-55
2022/12/28 08:18:53;;;;;;;20.40;17.73;;;8.70;99.90;;;;;;7364121;19;20077;-57
2022/12/28 08:21:23;;;;;;;18.08;16.17;;;8.70;99.90;;;;;;7363442;19;20025;-47
2022/12/28 08:23:51;;;;;;;;;;;8.70;99.90;;;;;;7369484;19;20669;-50
2022/12/28 08:26:37;;;;;;;19.17;16.95;;;8.80;99.90;;;;;;7367158;19;19927;-57
2022/12/28 08:29:07;;;;;;;20.45;18.35;;;8.80;99.90;;;;;;7368329;19;20833;-56
2022/12/28 08:31:36;;;;;;;20.13;18.17;;;8.80;99.90;;;;;;7361694;19;20370;-50
2022/12/28 08:34:04;;;;;;;23.17;19.05;;;8.80;99.90;;;;;;7367265;19;20048;-54
2022/12/28 08:36:32;;;;;;;20.75;17.02;;;8.80;99.90;;;;;;7364284;19;20023;-57
2022/12/28 08:39:00;;;;;;;20.70;18.50;;;8.80;99.90;;;;;;7363555;19;20015;-57
2022/12/28 08:41:27;;;;;;;20.80;18.65;;;8.80;99.90;;;;;;7364011;19;20600;-57
2022/12/28 08:43:56;;;;;;;24.83;20.42;;;8.80;99.90;;;;;;7365903;19;20018;-57
2022/12/28 08:46:24;;;;;;;24.25;19.77;;;8.70;99.90;;;;;;7364669;19;20019;-57
2022/12/28 08:48:53;;;;;;;23.00;19.92;;;8.80;99.90;;;;;;7363739;19;20034;-57
2022/12/28 08:51:22;;;;;;;21.80;19.45;;;8.90;99.90;;;;;;7363242;19;20033;-58
2022/12/28 08:53:49;;;;;;;23.80;19.17;;;8.70;99.90;;;;;;7364879;19;20028;-57
2022/12/28 08:56:18;;;;;;;22.30;20.02;;;8.70;99.90;;;;;;7368865;19;20032;-57
2022/12/28 08:58:46;;;;;;;21.95;19.30;;;8.70;99.90;;;;;;7370828;19;20026;-58
2022/12/28 09:01:15;;;;;;;22.92;19.63;;;8.80;99.90;;;;;;7370855;19;20470;-57
2022/12/28 09:03:47;;;;;;;21.42;19.20;;;8.70;99.90;;;;;;7367585;19;20459;-57
2022/12/28 09:06:20;;;;;;;22.10;19.65;;;8.80;99.90;;;;;;7369624;19;20128;-57
2022/12/28 09:08:52;;;;;;;20.95;18.55;;;8.90;99.90;;;;;;7368737;19;20524;-57
2022/12/28 09:11:19;;;;;;;19.25;17.25;;;8.80;99.90;;;;;;7375948;19;20064;-51
2022/12/28 09:13:45;;;;;;;18.85;16.85;;;8.80;99.90;;;;;;7366080;19;20026;-52
2022/12/28 09:16:15;;;;;;;19.23;17.23;;;8.90;99.90;;;;;;7368262;19;20047;-49
2022/12/28 09:18:43;;;;;;;20.00;17.90;;;9.00;99.90;;;;;;7366776;19;20490;-50
2022/12/28 09:21:16;;;;;;;19.33;17.33;;;9.00;99.90;;;;;;7369348;19;20110;-57
2022/12/28 09:23:44;;;;;;;19.38;16.70;;;9.00;99.90;;;;;;7361720;19;20554;-48
2022/12/28 09:26:17;;;;;;;17.42;15.73;;;8.90;99.90;;;;;;7363404;19;20100;-50
2022/12/28 09:28:55;;;;;;;17.08;15.48;;;8.90;99.90;;;;;;7367773;19;20453;-58
2022/12/28 09:31:25;;;;;;;20.02;17.23;;;9.10;99.90;;;;;;7370120;19;20079;-57
2022/12/28 09:34:01;;;;;;;17.77;15.98;;;9.00;99.90;;;;;;7365877;19;20030;-57
2022/12/28 09:36:34;;;;;;;17.67;15.57;;;9.00;99.90;;;;;;7367265;19;20017;-55
2022/12/28 09:39:06;;;;;;;17.75;15.90;;;9.00;99.90;;;;;;7369651;19;20383;-52
2022/12/28 09:41:35;;;;;;;18.50;16.45;;;9.00;99.90;;;;;;7372801;19;20011;-58
2022/12/28 09:44:16;;;;;;;17.67;15.50;;;9.00;99.90;;;;;;7369239;19;20022;-58
2022/12/28 09:46:45;;;;;;;19.25;17.17;;;9.00;99.90;;;;;;7368150;19;20492;-57
2022/12/28 09:49:16;;;;;;;18.15;15.80;;;9.00;99.90;;;;;;7369225;19;20374;-58
2022/12/28 09:51:59;;;;;;;19.52;17.50;;;8.90;99.90;;;;;;7367701;19;20371;-57
2022/12/28 09:54:26;;;;;;;17.13;15.43;;;9.00;99.90;;;;;;7366687;19;20407;-58
2022/12/28 10:05:16;;;;;;;19.08;16.92;;;9.00;99.90;;;;;;7366226;19;20030;-54
2022/12/28 10:07:43;;;;;;;19.05;16.98;;;9.00;99.90;;;;;;7365669;19;20478;-53
2022/12/28 10:10:19;;;;;;;19.48;17.38;;;9.10;99.90;;;;;;7366134;19;20022;-54
2022/12/28 10:12:47;;;;;;;18.45;16.55;;;9.20;99.90;;;;;;7366001;19;20022;-54
2022/12/28 10:15:28;;;;;;;19.33;17.33;;;9.10;99.90;;;;;;7362616;19;20019;-53
2022/12/28 10:17:54;;;;;;;20.48;17.75;;;9.10;99.90;;;;;;7368163;19;20525;-52
2022/12/28 10:20:21;;;;;;;18.83;16.70;;;9.20;99.90;;;;;;7365887;19;20061;-53
2022/12/28 10:22:55;;;;;;;19.67;17.45;;;9.10;99.90;;;;;;7365779;19;20019;-54
2022/12/28 10:25:25;;;;;;;19.25;16.52;;;9.10;99.90;;;;;;7365186;19;20053;-53
2022/12/28 10:27:52;;;;;;;20.38;18.20;;;9.20;99.90;;;;;;7366051;19;20374;-54
2022/12/28 10:30:27;;;;;;;20.35;18.10;;;9.20;99.90;;;;;;7366486;19;20018;-54
2022/12/28 10:33:00;;;;;;;18.10;16.30;;;9.20;99.90;;;;;;7363873;19;20352;-52
2022/12/28 10:35:39;;;;;;;18.25;16.30;;;9.20;99.90;;;;;;7361841;19;20022;-50
2022/12/28 10:38:41;;;;;;;19.05;16.98;;;9.20;99.90;;;;;;7366699;19;20025;-53
2022/12/28 10:41:15;;;;;;;16.38;14.52;;;9.10;99.90;;;;;;7367332;19;20492;-53
2022/12/28 10:43:46;;;;;;;16.08;14.35;;;9.10;99.90;;;;;;7363478;19;20018;-53
2022/12/28 10:46:26;;;;;;;17.63;15.77;;;9.20;99.90;;;;;;7364712;19;20014;-54
2022/12/28 10:48:55;;;;;;;15.13;13.52;;;9.20;99.90;;;;;;7364808;19;20374;-54
2022/12/28 10:51:24;;;;;;;14.95;12.93;;;9.20;99.90;;;;;;7365382;19;20018;-54
2022/12/28 10:53:56;;;;;;;14.07;11.48;;;9.30;99.90;;;;;;7367714;19;20485;-53
2022/12/28 10:56:28;;;;;;;13.00;11.60;;;9.20;99.90;;;;;;7362664;19;20330;-53
2022/12/28 10:59:16;;;;;;;12.88;11.52;;;9.30;99.90;;;;;;7368224;19;20309;-54
2022/12/28 11:01:43;;;;;;;12.00;10.73;;;9.30;99.90;;;;;;7359905;19;20510;-53
2022/12/28 11:04:18;;;;;;;12.38;10.57;;;9.20;99.90;;;;;;7362906;19;20053;-55
2022/12/28 11:07:00;;;;;;;12.43;11.13;;;9.30;99.90;;;;;;7361857;19;20532;-54
2022/12/28 11:09:31;;;;;;;11.45;10.25;;;9.30;99.90;;;;;;7364342;19;20090;-51
2022/12/28 11:12:23;;;;;;;11.05;9.95;;;9.20;99.90;;;;;;7360028;19;20360;-54
2022/12/28 11:14:51;;;;;;;10.93;9.75;;;9.30;99.90;;;;;;7359689;19;20022;-53
2022/12/28 11:17:26;;;;;;;11.27;9.30;;;9.30;99.90;;;;;;7362244;19;20022;-54
2022/12/28 11:20:18;;;;;;;10.88;9.77;;;9.30;99.90;;;;;;7359811;19;20024;-54
2022/12/28 11:22:46;;;;;;;11.05;9.85;;;9.30;99.90;;;;;;7363651;19;20034;-54
2022/12/28 11:25:17;;;;;;;10.90;9.80;;;9.20;99.90;;;;;;7361151;19;20027;-55
2022/12/28 11:27:47;;;;;;;11.65;9.88;;;9.20;99.90;;;;;;7360535;19;20291;-55
2022/12/28 11:30:16;;;;;;;12.02;10.70;;;9.30;99.90;;;;;;7362954;19;20018;-55
2022/12/28 11:32:50;;;;;;;12.07;9.75;;;9.30;99.90;;;;;;7365065;19;20492;-56
2022/12/28 11:35:21;;;;;;;10.43;9.32;;;9.20;99.90;;;;;;7362097;19;20015;-56
2022/12/28 11:37:59;;;;;;;10.80;9.70;;;9.30;99.90;;;;;;7363464;19;20011;-58
2022/12/28 11:40:47;;;;;;;10.30;9.07;;;9.30;99.90;;;;;;7360525;19;20444;-56
2022/12/28 11:43:29;;;;;;;12.93;9.82;;;9.30;99.90;;;;;;7361372;19;20366;-55
2022/12/28 11:46:00;;;;;;;11.05;9.45;;;9.30;99.90;;;;;;7362422;19;21572;-56
2022/12/28 11:48:42;;;;;;;14.15;10.48;;;9.30;99.90;;;;;;7359695;19;20034;-54
2022/12/28 11:51:25;;;;;;;11.60;9.30;;;9.30;99.90;;;;;;7363745;19;20525;-58
2022/12/28 11:53:57;;;;;;;10.98;9.88;;;9.20;99.90;;;;;;7363223;19;20655;-58
2022/12/28 11:56:42;;;;;;;10.25;9.10;;;9.20;99.90;;;;;;7360235;19;20464;-59
2022/12/28 11:59:29;;;;;;;11.98;9.38;;;9.30;99.90;;;;;;7365066;19;20506;-59
2022/12/28 12:02:22;;;;;;;11.52;9.93;;;9.30;99.90;;;;;;7363343;19;20022;-59
2022/12/28 12:04:49;;;;;;;10.60;9.30;;;9.40;99.90;;;;;;7360429;19;20022;-59
2022/12/28 12:07:24;;;;;;;11.38;9.70;;;9.30;99.90;;;;;;7361343;19;20502;-59
2022/12/28 12:10:25;;;;;;;9.75;8.85;;;9.30;99.90;;;;;;7361477;19;20011;-59
2022/12/28 12:12:52;;;;;;;11.73;9.45;;;9.40;99.90;;;;;;7364656;19;20465;-59
2022/12/28 12:15:24;;;;;;;11.93;9.75;;;9.40;99.90;;;;;;7360165;19;20019;-59
2022/12/28 12:18:05;;;;;;;9.55;8.55;;;9.40;99.90;;;;;;7358090;19;20059;-59
2022/12/28 12:21:02;;;;;;;11.47;9.97;;;9.30;99.90;;;;;;7359513;19;21475;-58
2022/12/28 12:23:34;;;;;;;11.27;10.10;;;9.30;99.90;;;;;;7361397;19;21375;-59
2022/12/28 12:26:19;;;;;;;10.13;8.85;;;9.30;99.90;;;;;;7360861;19;20933;-59
2022/12/28 12:28:57;;;;;;;12.35;9.20;;;9.20;99.90;;;;;;7360179;19;20010;-59
2022/12/28 12:31:36;;;;;;;9.50;8.25;;;9.20;99.90;;;;;;7353880;19;20014;-59
2022/12/28 12:34:25;;;;;;;11.10;9.90;;;9.20;99.90;;;;;;7359178;19;20097;-59
2022/12/28 12:37:19;;;;;;;11.50;9.52;;;9.40;99.90;;;;;;7352108;19;20042;-60
2022/12/28 12:40:03;;;;;;;14.15;9.52;;;9.20;99.90;;;;;;7353890;19;20022;-60
2022/12/28 12:42:32;;;;;;;10.15;8.88;;;9.10;99.90;;;;;;7358065;19;20046;-61
2022/12/28 12:45:22;;;;;;;9.88;7.88;;;9.30;99.90;;;;;;7355534;19;20023;-61
2022/12/28 12:48:16;;;;;;;8.70;7.38;;;9.30;99.90;;;;;;7357667;19;20015;-60
2022/12/28 12:51:06;;;;;;;8.75;7.85;;;9.30;99.90;;;;;;7355236;19;20022;-60
2022/12/28 12:53:59;;;;;;;8.20;7.05;;;9.20;99.90;;;;;;7361423;19;20015;-61
2022/12/28 12:56:37;;;;;;;8.55;7.68;;;9.30;99.90;;;;;;7359437;19;20025;-60
2022/12/28 12:59:35;;;;;;;7.35;6.13;;;9.20;99.90;;;;;;7361394;19;20569;-60
2022/12/28 13:02:28;;;;;;;9.25;6.55;;;9.20;99.90;;;;;;7359213;19;21315;-60
2022/12/28 13:04:54;;;;;;;6.80;6.00;;;9.20;99.90;;;;;;7361388;19;20037;-60
2022/12/28 13:07:26;;;;;;;7.20;6.43;;;9.20;99.90;;;;;;7359799;19;20544;-59
2022/12/28 13:10:00;;;;;;;7.18;6.40;;;9.20;99.90;;;;;;7359903;19;20022;-60
2022/12/28 13:12:26;;;;;;;7.90;6.40;;;9.20;99.90;;;;;;7359948;19;20019;-60
2022/12/28 13:14:59;;;;;;;8.05;5.85;;;9.30;99.90;;;;;;7359881;19;20476;-59
2022/12/28 13:17:28;;;;;;;6.30;5.70;;;9.20;99.90;;;;;;7360921;19;20068;-61
2022/12/28 13:20:18;;;;;;;6.70;5.55;;;9.20;99.90;;;;;;7361395;19;20652;-60
2022/12/28 13:22:47;;;;;;;5.88;4.95;;;9.30;99.90;;;;;;7356047;19;20015;-60
2022/12/28 13:25:24;;;;;;;6.07;5.10;;;9.30;99.90;;;;;;7361112;19;20086;-57
2022/12/28 13:27:51;;;;;;;6.10;5.05;;;9.30;99.90;;;;;;7358101;19;20086;-60
2022/12/28 13:30:21;;;;;;;5.90;4.57;;;9.20;99.90;;;;;;7363954;19;20022;-60
2022/12/28 13:33:00;;;;;;;6.65;4.78;;;9.30;99.90;;;;;;7357289;19;20106;-58
2022/12/28 13:35:30;;;;;;;5.22;4.53;;;9.30;99.90;;;;;;7355576;19;20112;-61
2022/12/28 13:38:11;;;;;;;3.90;3.50;;;9.30;99.90;;;;;;7357357;19;20496;-60
2022/12/28 13:40:38;;;;;;;5.47;3.75;;;9.20;99.90;;;;;;7361863;19;20023;-60
2022/12/28 13:43:35;;;;;;;6.45;4.25;;;9.30;99.90;;;;;;7364844;19;20014;-60
2022/12/28 13:46:06;;;;;;;4.03;3.42;;;9.20;99.90;;;;;;7365697;19;20563;-57
2022/12/28 13:48:40;;;;;;;5.20;3.30;;;9.30;99.90;;;;;;7365189;19;20039;-58